DW1477 Lanjaron ES current weather conditions

sailwx.info

Wind from 169

Air temperature 20.6° C
Dewpoint 6.5° C

Last reported at 2018-Jul-17 05:00 UTC.
Time now 2018-Jul-17 05:44 UTC

Location: N 36°55' W 003°28'.
View on Google Maps.

See reports from other nearby stations

  
Tides and Currents Weather Stations Pressure Air Temp Water Temp Dewpoint Dewpoint Depression Visibility Wind Speed Wind Dir Waves Ship Positions
date/time (UTC)wind fromknots sea level pressurealtimeterstation pressurevisibilityair tempwater tempwave heightnotes
2018-Jul-17 05:00 169 20.6
2018-Jul-17 04:50 169 20.0
2018-Jul-17 04:30 169 19.4
2018-Jul-17 04:10 169 19.4
2018-Jul-17 03:10 169 18.9
2018-Jul-17 02:30 169 0 gusting 2 19.4
2018-Jul-17 02:20 169 19.4
2018-Jul-17 01:50 169 19.4
2018-Jul-17 01:10 172 21.1
2018-Jul-17 00:50 172 21.1
2018-Jul-17 00:40 174 0 gusting 2 20.6
2018-Jul-17 00:30 175 0 gusting 2 20.0
2018-Jul-17 00:20 176 0 gusting 2 19.4
2018-Jul-17 00:10 176 19.4
2018-Jul-17 00:00 176 19.4
2018-Jul-16 23:30 176 0 gusting 2 20.0
2018-Jul-16 23:00 176 19.4
2018-Jul-16 22:30 176 20.0
2018-Jul-16 22:20 176 20.6
2018-Jul-16 21:20 176 21.1
2018-Jul-16 20:50 176 20.6
2018-Jul-16 20:20 176 21.1
2018-Jul-16 20:10 176 21.1
2018-Jul-16 19:30 176 0 gusting 2 24.4
2018-Jul-16 19:00 176 26.7
2018-Jul-16 18:40 176 27.2
2018-Jul-16 18:30 174 0 gusting 2 27.2
2018-Jul-16 18:10 210 27.8
2018-Jul-16 17:30 073 27.2
2018-Jul-16 16:40 070 1 gusting 5 27.2
2018-Jul-16 15:30 28.9
2018-Jul-16 15:20 040 27.2
2018-Jul-16 14:30 319 1 gusting 7 27.8
2018-Jul-16 14:20 242 1 gusting 7 27.8
2018-Jul-16 14:10 230 1 gusting 6 27.8
2018-Jul-16 14:00 251 1 gusting 6 27.8
2018-Jul-16 13:50 258 0 gusting 5 27.2
2018-Jul-16 13:40 286 0 gusting 6 26.7
2018-Jul-16 13:00 227 2 gusting 10 26.1
2018-Jul-16 12:50 269 1 gusting 10 26.1
2018-Jul-16 12:40 309 1 gusting 6 26.1
2018-Jul-16 12:10 300 25.6
2018-Jul-16 11:30 295 0 gusting 2 26.1
2018-Jul-16 11:20 296 0 gusting 7 26.1
2018-Jul-16 10:00 078 25.6
2018-Jul-16 09:10 078 22.8
2018-Jul-16 09:00 078 22.8
2018-Jul-16 08:50 078 22.2
2018-Jul-16 08:30 078 21.1
2018-Jul-16 08:20 078 20.6
2018-Jul-16 07:50 078 18.9
2018-Jul-16 07:20 078 17.8
2018-Jul-16 07:00 078 16.1
2018-Jul-16 06:30 078 15.6
2018-Jul-16 05:50 078 15.6
2018-Jul-16 05:40 080 0 gusting 5 15.6
2018-Jul-16 05:30 134 0 gusting 2 15.0
2018-Jul-16 05:20 135 0 gusting 2 15.6
2018-Jul-16 05:00 135 15.6
2018-Jul-16 04:50 135 0 gusting 2 15.6
2018-Jul-16 04:30 135 0 gusting 2 16.1
2018-Jul-16 04:20 134 1 gusting 5 15.6
2018-Jul-16 03:50 082 16.1
2018-Jul-16 03:00 098 0 gusting 4 16.1
2018-Jul-16 02:50 097 16.7
2018-Jul-16 01:50 254 2 gusting 10 17.2
2018-Jul-16 01:40 145 0 gusting 4 17.2
2018-Jul-16 01:30 136 0 gusting 6 17.8
2018-Jul-16 00:40 264 6 gusting 15 18.3
2018-Jul-16 00:20 260 6 gusting 14 18.3
2018-Jul-15 23:50 268 5 gusting 10 18.9
2018-Jul-15 21:50 257 6 gusting 13 21.1
2018-Jul-15 21:40 244 5 gusting 13 21.1
2018-Jul-15 21:10 261 6 gusting 13 21.7
2018-Jul-15 21:00 244 5 gusting 13 21.7
2018-Jul-15 20:50 256 5 gusting 14 22.2
2018-Jul-15 20:40 244 6 gusting 14 22.2
2018-Jul-15 19:40 274 6 gusting 12 23.3
2018-Jul-15 19:30 276 5 gusting 12 23.9
2018-Jul-15 19:10 267 5 gusting 12 25.0
2018-Jul-15 18:50 308 5 gusting 10 25.6
2018-Jul-15 18:40 281 5 gusting 13 26.1
2018-Jul-15 18:30 291 4 gusting 13 26.7
2018-Jul-15 18:20 265 6 gusting 15 26.7
2018-Jul-15 17:10 204 0 gusting 8 26.1
2018-Jul-15 16:20 275 30.0
2018-Jul-15 16:00 075 1 gusting 7 30.6
2018-Jul-15 15:50 062 0 gusting 5 31.7
2018-Jul-15 15:40 079 0 gusting 4 31.7
2018-Jul-15 15:30 034 1 gusting 5 31.7
2018-Jul-15 14:40 307 0 gusting 5 31.1
2018-Jul-15 14:30 271 1 gusting 5 31.1
2018-Jul-15 14:00 237 0 gusting 5 30.0
2018-Jul-15 13:50 231 0 gusting 4 30.0
2018-Jul-15 13:20 210 28.3
2018-Jul-15 13:10 209 28.3
2018-Jul-15 12:30 228 28.3
2018-Jul-15 11:10 136 27.8
2018-Jul-15 10:40 134 0 gusting 2 28.3
2018-Jul-15 10:30 134 28.3
2018-Jul-15 10:20 130 28.3
2018-Jul-15 09:10 112 26.7
2018-Jul-15 08:30 112 25.0
2018-Jul-15 08:10 112 23.9
2018-Jul-15 07:50 112 23.3
2018-Jul-15 07:00 112 21.7
2018-Jul-15 06:20 112 20.6
2018-Jul-15 06:10 112 20.0
2018-Jul-15 05:20 112 20.6